createdAt,value
2017-08-16T00:00:32.748Z,82.79
2017-08-16T00:03:00.583Z,81.65
2017-08-16T00:05:28.341Z,81.56
2017-08-16T00:07:56.142Z,81.69
2017-08-16T00:10:23.834Z,81.32
2017-08-16T00:12:51.761Z,81.35
2017-08-16T00:15:19.619Z,81.06
2017-08-16T00:17:47.404Z,81.46
2017-08-16T00:20:15.195Z,81.27
2017-08-16T00:22:43.036Z,81.70
2017-08-16T00:25:10.853Z,81.02
2017-08-16T00:27:38.688Z,80.75
2017-08-16T00:30:07.377Z,81.87
2017-08-16T00:32:35.213Z,81.17
2017-08-16T00:35:03.007Z,81.64
2017-08-16T00:37:30.855Z,81.81
2017-08-16T00:39:58.702Z,81.52
2017-08-16T00:42:26.436Z,81.27
2017-08-16T00:44:55.510Z,81.43
2017-08-16T00:47:23.325Z,81.64
2017-08-16T00:49:51.213Z,81.26
2017-08-16T00:52:19.012Z,81.80
2017-08-16T00:54:46.909Z,81.69
2017-08-16T00:57:14.752Z,82.22
2017-08-16T00:59:42.469Z,81.91
2017-08-16T01:02:10.261Z,82.04
2017-08-16T01:04:38.014Z,82.03
2017-08-16T01:07:05.723Z,82.23
2017-08-16T01:09:33.443Z,82.79
2017-08-16T01:12:01.325Z,81.96
2017-08-16T01:14:29.041Z,82.02
2017-08-16T01:16:56.803Z,82.53
2017-08-16T01:19:24.545Z,82.75
2017-08-16T01:21:52.217Z,82.37
2017-08-16T01:24:20.028Z,81.55
2017-08-16T01:26:47.814Z,81.94
2017-08-16T01:29:15.712Z,82.13
2017-08-16T01:31:43.516Z,82.94
2017-08-16T01:34:11.368Z,82.28
2017-08-16T01:36:39.152Z,82.28
2017-08-16T01:39:07.113Z,82.83
2017-08-16T01:41:34.907Z,83.17
2017-08-16T01:44:02.730Z,83.32
2017-08-16T01:46:30.488Z,82.52
2017-08-16T01:48:58.265Z,82.78
2017-08-16T01:51:26.002Z,82.53
2017-08-16T01:53:53.860Z,82.93
2017-08-16T01:56:21.697Z,82.89
2017-08-16T01:58:49.583Z,83.04
2017-08-16T02:01:17.358Z,83.11
2017-08-16T02:03:45.159Z,82.81
2017-08-16T02:06:12.942Z,82.79
2017-08-16T02:08:40.745Z,82.44
2017-08-16T02:11:08.456Z,83.08
2017-08-16T02:13:36.313Z,83.26
2017-08-16T02:16:04.117Z,83.66
2017-08-16T02:18:31.992Z,83.80
2017-08-16T02:20:59.929Z,83.54
2017-08-16T02:23:27.755Z,83.09
2017-08-16T02:25:55.609Z,84.70
2017-08-16T02:28:23.437Z,83.86
2017-08-16T02:30:51.304Z,83.41
2017-08-16T02:33:19.251Z,83.95
2017-08-16T02:35:47.134Z,84.35
2017-08-16T02:38:15.027Z,83.69
2017-08-16T02:40:42.947Z,84.17
2017-08-16T02:43:10.753Z,83.80
2017-08-16T02:45:38.606Z,83.48
2017-08-16T02:48:06.429Z,84.00
2017-08-16T02:50:34.282Z,83.70
2017-08-16T02:53:02.237Z,83.82
2017-08-16T02:55:30.103Z,84.08
2017-08-16T02:57:57.873Z,84.56
2017-08-16T03:00:25.899Z,85.17
2017-08-16T03:02:53.766Z,85.54
2017-08-16T03:05:21.589Z,85.61
2017-08-16T03:07:49.573Z,85.17
2017-08-16T03:10:17.437Z,85.42
2017-08-16T03:12:45.231Z,85.52
2017-08-16T03:15:13.093Z,85.47
2017-08-16T03:17:41.073Z,85.48
2017-08-16T03:20:08.831Z,86.16
2017-08-16T03:22:37.041Z,86.55
2017-08-16T03:25:05.081Z,85.91
2017-08-16T03:27:33.062Z,86.31
2017-08-16T03:30:00.895Z,86.60
2017-08-16T03:32:28.714Z,86.54
2017-08-16T03:34:56.518Z,86.65
2017-08-16T03:37:24.272Z,86.41
2017-08-16T03:39:52.159Z,85.72
2017-08-16T03:42:19.992Z,86.73
2017-08-16T03:44:48.038Z,86.04
2017-08-16T03:47:15.951Z,85.81
2017-08-16T03:49:43.778Z,86.03
2017-08-16T03:52:11.657Z,86.73
2017-08-16T03:54:39.588Z,86.81
2017-08-16T03:57:07.464Z,87.15
2017-08-16T03:59:35.637Z,87.40
2017-08-16T04:02:03.518Z,86.45
2017-08-16T04:04:31.408Z,86.19
2017-08-16T04:06:59.366Z,85.79
2017-08-16T04:09:27.209Z,86.15
2017-08-16T04:11:55.167Z,85.71
2017-08-16T04:14:23.192Z,85.64
2017-08-16T04:16:51.067Z,86.47
2017-08-16T04:19:18.937Z,85.83
2017-08-16T04:21:47.849Z,86.83
2017-08-16T04:24:15.714Z,86.20
2017-08-16T04:26:43.504Z,86.10
2017-08-16T04:29:11.400Z,86.14
2017-08-16T04:31:39.159Z,86.05
2017-08-16T04:34:06.990Z,85.53
2017-08-16T04:36:34.740Z,85.52
2017-08-16T04:39:02.595Z,85.64
2017-08-16T04:41:30.384Z,85.91
2017-08-16T04:43:58.241Z,85.74
2017-08-16T04:46:26.101Z,86.54
2017-08-16T04:48:53.859Z,85.84
2017-08-16T04:51:21.667Z,85.42
2017-08-16T04:53:49.401Z,85.56
2017-08-16T04:56:17.206Z,86.05
2017-08-16T04:58:45.045Z,86.75
2017-08-16T05:01:12.810Z,86.27
2017-08-16T05:03:40.638Z,85.89
2017-08-16T05:06:08.387Z,85.55
2017-08-16T05:08:36.758Z,86.08
2017-08-16T05:11:06.506Z,86.12
2017-08-16T05:13:34.466Z,85.65
2017-08-16T05:16:02.310Z,85.58
2017-08-16T05:18:30.040Z,85.60
2017-08-16T05:20:57.828Z,85.79
2017-08-16T05:23:28.707Z,85.45
2017-08-16T05:25:56.498Z,84.53
2017-08-16T05:28:25.499Z,84.05
2017-08-16T05:30:53.288Z,84.70
2017-08-16T05:33:21.031Z,84.59
2017-08-16T05:35:48.871Z,84.46
2017-08-16T05:38:16.751Z,84.30
2017-08-16T05:40:44.597Z,84.13
2017-08-16T05:43:12.470Z,84.57
2017-08-16T05:45:40.270Z,84.56
2017-08-16T05:48:08.026Z,84.50
2017-08-16T05:50:35.739Z,84.20
2017-08-16T05:53:03.455Z,84.43
2017-08-16T05:55:31.233Z,84.42
2017-08-16T05:57:59.762Z,84.42
2017-08-16T06:00:27.522Z,84.77
2017-08-16T06:02:55.988Z,84.24
2017-08-16T06:05:23.728Z,84.26
2017-08-16T06:07:51.558Z,84.63
2017-08-16T06:10:19.303Z,84.86
2017-08-16T06:12:47.050Z,84.71
2017-08-16T06:15:14.820Z,84.53
2017-08-16T06:17:42.534Z,84.45
2017-08-16T06:20:10.303Z,85.23
2017-08-16T06:22:38.030Z,85.48
2017-08-16T06:25:05.808Z,85.37
2017-08-16T06:27:33.547Z,85.57
2017-08-16T06:30:01.261Z,85.25
2017-08-16T06:32:28.968Z,85.83
2017-08-16T06:34:56.738Z,85.92
2017-08-16T06:37:24.471Z,86.88
2017-08-16T06:39:52.188Z,86.46
2017-08-16T06:42:20.141Z,85.78
2017-08-16T06:44:47.937Z,85.43
2017-08-16T06:47:15.700Z,85.34
2017-08-16T06:49:43.417Z,85.25
2017-08-16T06:52:11.191Z,85.20
2017-08-16T06:54:39.007Z,85.43
2017-08-16T06:57:06.760Z,85.85
2017-08-16T06:59:34.462Z,86.36
2017-08-16T07:02:02.298Z,85.47
2017-08-16T07:04:30.171Z,85.11
2017-08-16T07:06:57.942Z,84.91
2017-08-16T07:09:25.710Z,84.75
2017-08-16T07:11:53.414Z,84.41
2017-08-16T07:14:21.184Z,83.40
2017-08-16T07:16:48.960Z,83.99
2017-08-16T07:19:16.763Z,83.90
2017-08-16T07:21:44.528Z,84.18
2017-08-16T07:24:12.239Z,84.00
2017-08-16T07:26:40.012Z,84.12
2017-08-16T07:29:07.866Z,83.59
2017-08-16T07:31:35.631Z,84.15
2017-08-16T07:34:03.395Z,83.96
2017-08-16T07:36:31.197Z,82.96
2017-08-16T07:38:58.950Z,82.98
2017-08-16T07:41:26.661Z,82.52
2017-08-16T07:43:54.449Z,81.38
2017-08-16T07:46:22.175Z,81.17
2017-08-16T07:48:50.782Z,80.41
2017-08-16T07:51:18.491Z,79.09
2017-08-16T07:53:46.315Z,79.87
2017-08-16T07:56:14.096Z,79.29
2017-08-16T07:58:41.843Z,78.97
2017-08-16T08:01:09.598Z,78.49
2017-08-16T08:03:37.374Z,76.37
2017-08-16T08:06:05.176Z,77.28
2017-08-16T08:08:32.932Z,78.43
2017-08-16T08:11:00.701Z,77.86
2017-08-16T08:13:28.408Z,77.82
2017-08-16T08:15:56.198Z,77.68
2017-08-16T08:18:23.954Z,78.75
2017-08-16T08:20:52.536Z,77.84
2017-08-16T08:23:20.307Z,76.55
2017-08-16T08:25:48.084Z,76.37
2017-08-16T08:28:15.825Z,76.92
2017-08-16T08:30:43.545Z,77.34
2017-08-16T08:33:11.889Z,76.33
2017-08-16T08:35:39.649Z,74.42
2017-08-16T08:38:07.366Z,74.89
2017-08-16T08:40:35.123Z,76.62
2017-08-16T08:43:02.839Z,76.46
2017-08-16T08:45:31.691Z,75.74
2017-08-16T08:47:59.449Z,76.28
2017-08-16T08:50:27.160Z,75.76
2017-08-16T08:52:55.613Z,74.94
2017-08-16T08:55:24.009Z,74.43
2017-08-16T08:57:51.811Z,74.72
2017-08-16T09:00:19.578Z,75.02
2017-08-16T09:02:47.458Z,74.17
2017-08-16T09:05:15.298Z,74.70
2017-08-16T09:07:43.737Z,74.23
2017-08-16T09:10:11.566Z,74.18
2017-08-16T09:12:39.339Z,73.95
2017-08-16T09:15:07.166Z,73.45
2017-08-16T09:17:35.001Z,73.59
2017-08-16T09:20:02.824Z,73.40
2017-08-16T09:22:30.705Z,72.77
2017-08-16T09:25:00.262Z,71.98
2017-08-16T09:27:29.214Z,72.14
2017-08-16T09:29:57.114Z,72.52
2017-08-16T09:32:25.778Z,72.49
2017-08-16T09:34:53.587Z,71.90
2017-08-16T09:37:22.962Z,72.14
2017-08-16T09:39:50.689Z,72.27
2017-08-16T09:42:18.685Z,71.90
2017-08-16T09:44:47.614Z,71.77
2017-08-16T09:47:16.400Z,71.08
2017-08-16T09:49:44.183Z,69.98
2017-08-16T09:52:13.640Z,70.77
2017-08-16T09:54:42.397Z,71.55
2017-08-16T09:57:10.163Z,70.61
2017-08-16T09:59:38.335Z,71.01
2017-08-16T10:02:06.346Z,71.86
2017-08-16T10:04:34.128Z,72.29
2017-08-16T10:07:01.895Z,71.87
2017-08-16T10:09:29.785Z,72.01
2017-08-16T10:11:57.516Z,72.89
2017-08-16T10:14:25.341Z,71.51
2017-08-16T10:16:53.209Z,71.46
2017-08-16T10:19:21.048Z,70.20
2017-08-16T10:21:48.861Z,70.05
2017-08-16T10:24:16.664Z,70.19
2017-08-16T10:26:44.416Z,70.42
2017-08-16T10:29:12.230Z,69.30
2017-08-16T10:31:39.978Z,65.65
2017-08-16T10:34:07.743Z,66.63
2017-08-16T10:36:35.508Z,66.91
2017-08-16T10:39:03.401Z,66.98
2017-08-16T10:41:31.162Z,66.22
2017-08-16T10:43:58.855Z,65.48
2017-08-16T10:46:26.669Z,65.38
2017-08-16T10:48:54.381Z,65.92
2017-08-16T10:51:22.282Z,64.08
2017-08-16T10:53:50.150Z,65.29
2017-08-16T10:56:17.898Z,63.85
2017-08-16T10:58:45.646Z,63.76
2017-08-16T11:01:13.430Z,64.13
2017-08-16T11:03:41.150Z,64.02
2017-08-16T11:06:09.042Z,65.01
2017-08-16T11:08:36.831Z,64.17
2017-08-16T11:11:04.583Z,62.02
2017-08-16T11:13:32.387Z,63.42
2017-08-16T11:16:00.143Z,63.76
2017-08-16T11:18:27.867Z,63.68
2017-08-16T11:20:55.584Z,62.17
2017-08-16T11:23:23.326Z,60.36
2017-08-16T11:25:51.436Z,59.27
2017-08-16T11:28:19.143Z,59.40
2017-08-16T11:30:46.850Z,59.28
2017-08-16T11:33:14.599Z,57.98
2017-08-16T11:35:42.288Z,54.66
2017-08-16T11:38:10.141Z,53.21
2017-08-16T11:40:38.045Z,53.69
2017-08-16T11:43:05.816Z,53.46
2017-08-16T11:45:33.563Z,53.19
2017-08-16T11:48:01.335Z,54.52
2017-08-16T11:50:29.110Z,53.49
2017-08-16T11:52:56.841Z,52.35
2017-08-16T11:55:24.545Z,54.53
2017-08-16T11:57:52.337Z,54.82
2017-08-16T12:00:20.076Z,53.26
2017-08-16T12:02:47.801Z,54.70
2017-08-16T12:05:15.563Z,54.59
2017-08-16T12:07:43.261Z,57.12
2017-08-16T12:10:11.048Z,54.58
2017-08-16T12:12:38.752Z,51.33
2017-08-16T12:15:06.512Z,49.75
2017-08-16T12:17:34.222Z,49.55
2017-08-16T12:20:02.028Z,53.16
2017-08-16T12:22:29.873Z,52.33
2017-08-16T12:24:57.644Z,51.41
2017-08-16T12:27:25.463Z,52.99
2017-08-16T12:29:53.169Z,51.03
2017-08-16T12:32:20.933Z,52.16
2017-08-16T12:34:49.198Z,51.80
2017-08-16T12:37:17.484Z,53.61
2017-08-16T12:39:45.163Z,54.93
2017-08-16T12:42:12.929Z,57.35
2017-08-16T12:44:40.643Z,60.97
2017-08-16T12:47:08.405Z,61.31
2017-08-16T12:49:36.114Z,60.23
2017-08-16T12:52:03.985Z,61.62
2017-08-16T12:54:31.695Z,59.81
2017-08-16T12:56:59.482Z,60.30
2017-08-16T12:59:27.234Z,61.19
2017-08-16T13:01:54.991Z,62.65
2017-08-16T13:04:22.728Z,60.89
2017-08-16T13:06:50.476Z,60.30
2017-08-16T13:09:18.174Z,62.17
2017-08-16T13:11:45.895Z,64.00
2017-08-16T13:14:13.649Z,62.25
2017-08-16T13:16:41.404Z,63.00
2017-08-16T13:19:09.244Z,62.36
2017-08-16T13:21:37.016Z,62.22
2017-08-16T13:24:04.791Z,59.73
2017-08-16T13:26:32.528Z,61.34
2017-08-16T13:29:00.231Z,59.95
2017-08-16T13:31:28.003Z,59.36
2017-08-16T13:33:55.713Z,58.94
2017-08-16T13:36:23.964Z,57.83
2017-08-16T13:38:51.741Z,58.35
2017-08-16T13:41:19.462Z,59.28
2017-08-16T13:43:47.241Z,61.07
2017-08-16T13:46:14.959Z,60.45
2017-08-16T13:48:42.792Z,61.50
2017-08-16T13:51:10.533Z,62.39
2017-08-16T13:53:38.394Z,62.21
2017-08-16T13:56:06.162Z,62.92
2017-08-16T13:58:33.958Z,64.78
2017-08-16T14:01:01.727Z,65.69
2017-08-16T14:03:30.103Z,65.24
2017-08-16T14:05:57.909Z,65.91
2017-08-16T14:08:25.653Z,64.85
2017-08-16T14:10:53.425Z,64.05
2017-08-16T14:13:21.175Z,65.55
2017-08-16T14:15:48.940Z,65.72
2017-08-16T14:18:16.749Z,63.39
2017-08-16T14:20:44.504Z,63.23
2017-08-16T14:23:12.202Z,64.62
2017-08-16T14:25:39.957Z,63.42
2017-08-16T14:28:07.664Z,62.18
2017-08-16T14:30:36.347Z,61.55
2017-08-16T14:33:04.092Z,61.95
2017-08-16T14:35:31.893Z,62.67
2017-08-16T14:37:59.623Z,62.83
2017-08-16T14:40:27.358Z,62.04
2017-08-16T14:42:55.121Z,64.06
2017-08-16T14:45:23.702Z,64.78
2017-08-16T14:47:51.532Z,64.72
2017-08-16T14:50:20.180Z,63.87
2017-08-16T14:52:48.904Z,63.07
2017-08-16T14:55:16.714Z,60.60
2017-08-16T14:57:44.493Z,60.24
2017-08-16T15:00:12.241Z,59.61
2017-08-16T15:02:40.220Z,59.32
2017-08-16T15:05:07.919Z,58.71
2017-08-16T15:07:35.653Z,57.39
2017-08-16T15:10:03.473Z,57.33
2017-08-16T15:12:31.290Z,57.29
2017-08-16T15:14:59.066Z,58.00
2017-08-16T15:17:26.821Z,57.23
2017-08-16T15:19:54.570Z,59.01
2017-08-16T15:22:22.299Z,58.49
2017-08-16T15:24:50.063Z,57.58
2017-08-16T15:27:17.841Z,56.17
2017-08-16T15:29:45.565Z,57.04
2017-08-16T15:32:13.428Z,57.64
2017-08-16T15:34:41.176Z,56.87
2017-08-16T15:37:08.933Z,55.73
2017-08-16T15:39:36.712Z,56.78
2017-08-16T15:42:04.467Z,55.94
2017-08-16T15:44:32.260Z,57.17
2017-08-16T15:47:00.120Z,57.25
2017-08-16T15:49:27.925Z,56.16
2017-08-16T15:51:55.755Z,58.37
2017-08-16T15:54:23.519Z,60.16
2017-08-16T15:56:51.336Z,59.06
2017-08-16T15:59:19.144Z,59.10
2017-08-16T16:01:47.948Z,58.18
2017-08-16T16:04:15.799Z,59.75
2017-08-16T16:06:43.526Z,59.38
2017-08-16T16:09:11.309Z,59.57
2017-08-16T16:11:39.066Z,60.23
2017-08-16T16:14:06.871Z,60.79
2017-08-16T16:16:34.643Z,60.53
2017-08-16T16:19:02.347Z,62.91
2017-08-16T16:21:30.113Z,59.93
2017-08-16T16:23:57.929Z,60.44
2017-08-16T16:26:25.888Z,62.17
2017-08-16T16:28:53.602Z,63.66
2017-08-16T16:31:21.356Z,64.66
2017-08-16T16:33:49.146Z,64.14
2017-08-16T16:36:17.074Z,65.68
2017-08-16T16:38:44.855Z,66.46
2017-08-16T16:41:12.572Z,65.80
2017-08-16T16:43:40.345Z,67.47
2017-08-16T16:46:08.085Z,67.29
2017-08-16T16:48:35.905Z,67.42
2017-08-16T16:51:03.642Z,69.13
2017-08-16T16:53:31.463Z,69.51
2017-08-16T16:55:59.302Z,69.14
2017-08-16T16:58:27.023Z,69.79
2017-08-16T17:00:54.782Z,71.25
2017-08-16T17:03:22.541Z,70.75
2017-08-16T17:05:50.255Z,70.45
2017-08-16T17:08:18.053Z,71.37
2017-08-16T17:10:45.778Z,72.07
2017-08-16T17:13:13.540Z,71.39
2017-08-16T17:15:41.249Z,70.50
2017-08-16T17:18:09.020Z,70.74
2017-08-16T17:20:36.806Z,71.01
2017-08-16T17:23:04.573Z,72.01
2017-08-16T17:25:32.398Z,71.73
2017-08-16T17:28:00.197Z,71.11
2017-08-16T17:30:28.093Z,71.72
2017-08-16T17:32:55.903Z,69.86
2017-08-16T17:35:23.742Z,71.33
2017-08-16T17:37:54.181Z,71.77
2017-08-16T17:40:22.314Z,71.81
2017-08-16T17:42:50.078Z,71.72
2017-08-16T17:45:17.861Z,71.95
2017-08-16T17:47:45.633Z,73.24
2017-08-16T17:50:13.361Z,73.62
2017-08-16T17:52:41.302Z,75.03
2017-08-16T17:55:09.021Z,75.55
2017-08-16T17:57:37.653Z,75.06
2017-08-16T18:00:05.476Z,74.79
2017-08-16T18:02:33.495Z,75.20
2017-08-16T18:05:01.266Z,75.98
2017-08-16T18:07:29.049Z,76.10
2017-08-16T18:09:56.868Z,76.11
2017-08-16T18:12:24.639Z,75.85
2017-08-16T18:14:52.820Z,75.76
2017-08-16T18:17:20.733Z,77.07
2017-08-16T18:19:48.535Z,77.23
2017-08-16T18:22:16.260Z,77.66
2017-08-16T18:24:44.046Z,77.57
2017-08-16T18:27:11.751Z,76.97
2017-08-16T18:29:39.510Z,77.40
2017-08-16T18:32:07.260Z,77.50
2017-08-16T18:34:35.022Z,78.04
2017-08-16T18:37:02.857Z,78.04
2017-08-16T18:39:31.725Z,77.88
2017-08-16T18:41:59.507Z,78.28
2017-08-16T18:44:28.465Z,78.39
2017-08-16T18:46:59.057Z,78.56
2017-08-16T18:49:27.363Z,78.11
2017-08-16T18:51:55.136Z,78.23
2017-08-16T18:54:24.081Z,78.69
2017-08-16T18:56:53.080Z,78.67
2017-08-16T18:59:21.264Z,79.11
2017-08-16T19:01:49.035Z,79.00
2017-08-16T19:04:16.932Z,79.91
2017-08-16T19:06:44.739Z,79.92
2017-08-16T19:09:13.380Z,79.99
2017-08-16T19:11:41.294Z,79.65
2017-08-16T19:14:10.264Z,79.47
2017-08-16T19:16:38.010Z,79.43
2017-08-16T19:19:06.602Z,78.98
2017-08-16T19:21:34.700Z,79.29
2017-08-16T19:24:03.824Z,79.72
2017-08-16T19:26:31.957Z,79.56
2017-08-16T19:29:00.183Z,79.61
2017-08-16T19:31:28.871Z,79.96
2017-08-16T19:33:57.609Z,80.21
2017-08-16T19:36:25.558Z,80.90
2017-08-16T19:38:53.380Z,80.37
2017-08-16T19:41:21.179Z,80.37
2017-08-16T19:43:50.832Z,80.04
2017-08-16T19:46:18.743Z,80.17
2017-08-16T19:48:46.744Z,80.38
2017-08-16T19:51:14.717Z,80.33
2017-08-16T19:53:45.621Z,80.33
2017-08-16T19:56:13.677Z,80.91
2017-08-16T19:58:41.487Z,80.70
2017-08-16T20:01:09.928Z,80.47
2017-08-16T20:03:37.762Z,80.82
2017-08-16T20:06:05.648Z,81.01
2017-08-16T20:08:33.504Z,81.26
2017-08-16T20:11:01.288Z,81.26
2017-08-16T20:13:29.776Z,80.60
2017-08-16T20:15:57.575Z,80.98
2017-08-16T20:18:25.395Z,80.62
2017-08-16T20:20:53.243Z,80.30
2017-08-16T21:15:37.001Z,82.66
2017-08-16T21:18:04.772Z,82.11
2017-08-16T21:20:32.583Z,82.43
2017-08-16T21:38:02.507Z,82.26
2017-08-16T21:40:30.350Z,82.86
2017-08-16T21:42:58.052Z,82.16
2017-08-16T21:45:25.741Z,82.61
2017-08-16T21:47:53.549Z,82.59
2017-08-16T21:50:21.297Z,81.98
2017-08-16T21:52:49.098Z,82.79
2017-08-16T21:57:56.570Z,82.12
2017-08-16T22:00:24.275Z,82.47
2017-08-16T22:02:52.067Z,83.74
2017-08-16T22:05:19.845Z,83.26
2017-08-16T22:07:47.615Z,82.82
2017-08-16T22:10:15.361Z,83.04
2017-08-16T22:12:43.216Z,82.71
2017-08-16T22:15:12.204Z,83.18
2017-08-16T22:17:39.915Z,83.11
2017-08-16T22:20:07.789Z,82.83
2017-08-16T22:22:35.495Z,83.10
2017-08-16T22:25:03.286Z,83.60
2017-08-16T22:27:31.116Z,83.64
2017-08-16T22:29:58.837Z,83.72
2017-08-16T22:32:26.558Z,83.94
2017-08-16T22:34:54.408Z,83.89
2017-08-16T22:37:22.158Z,83.88
2017-08-16T22:39:49.902Z,84.11
2017-08-16T22:42:17.703Z,84.30
2017-08-16T22:44:45.499Z,83.67
2017-08-16T22:47:13.202Z,84.16
2017-08-16T22:49:40.967Z,84.00
2017-08-16T22:52:08.685Z,83.49
2017-08-16T22:54:36.395Z,83.29
2017-08-16T22:57:04.271Z,83.07
2017-08-16T22:59:31.988Z,83.66
2017-08-16T23:01:59.745Z,83.81
2017-08-16T23:04:29.267Z,83.70
2017-08-16T23:06:57.012Z,83.72
2017-08-16T23:09:24.798Z,84.03
2017-08-16T23:11:52.522Z,83.90
2017-08-16T23:14:20.234Z,83.76
2017-08-16T23:16:48.009Z,84.11
2017-08-16T23:19:15.723Z,84.06
2017-08-16T23:21:43.425Z,83.93
2017-08-16T23:24:11.239Z,84.22
2017-08-16T23:26:38.974Z,84.43
2017-08-16T23:29:06.780Z,84.45
2017-08-16T23:31:34.518Z,85.44
2017-08-16T23:34:02.252Z,85.47
2017-08-16T23:36:30.022Z,84.71
2017-08-16T23:38:57.851Z,84.37
2017-08-16T23:41:25.559Z,84.80
2017-08-16T23:43:53.287Z,84.72
2017-08-16T23:46:21.034Z,85.14
2017-08-16T23:48:48.759Z,84.03
2017-08-16T23:51:16.466Z,83.85
2017-08-16T23:53:44.232Z,84.29
2017-08-16T23:56:11.957Z,84.42
2017-08-16T23:58:39.736Z,84.63
